This is the latest recevied weather packets stored in our database for station/object OM2RC-6. If no packets are shown the sender has not sent any weather packets the latest 10 day(s).
| Time | Temp. | Humidity | Pressure | Rain* | Wind** | Luminosity | Snow |
|---|---|---|---|---|---|---|---|
| 1777753649 | 13.33° C | 65% | 1021.3 hPa | - | - | - | - |
| 1777752144 | 13.33° C | 64% | 1021.3 hPa | - | - | - | - |
| 1777751542 | 13.89° C | 61% | 1021.2 hPa | - | - | - | - |
| 1777750638 | 13.89° C | 59% | 1021.2 hPa | - | - | - | - |
| 1777748832 | 15° C | 55% | 1021.2 hPa | - | - | - | - |
| 1777747628 | 15.56° C | 54% | 1021.1 hPa | - | - | - | - |
| 1777745518 | 16.11° C | 57% | 1020.9 hPa | - | - | - | - |
| 1777745218 | 16.67° C | 57% | 1020.9 hPa | - | - | - | - |
| 1777743411 | 20.56° C | 47% | 1020.8 hPa | - | - | - | - |
| 1777741605 | 23.89° C | 31% | 1020.6 hPa | - | - | - | - |
| 1777740401 | 23.89° C | 29% | 1020.8 hPa | - | - | - | - |
| 1777739799 | 23.89° C | 28% | 1020.8 hPa | - | - | - | - |
| 1777739498 | 23.33° C | 29% | 1020.9 hPa | - | - | - | - |
| 1777739196 | 23.33° C | 29% | 1020.9 hPa | - | - | - | - |
| 1777738595 | 23.89° C | 28% | 1021 hPa | - | - | - | - |
| 1777738294 | 24.44° C | 29% | 1021.1 hPa | - | - | - | - |
| 1777737692 | 23.89° C | 30% | 1021.2 hPa | - | - | - | - |
| 1777736789 | 23.89° C | 30% | 1021.3 hPa | - | - | - | - |
| 1777736186 | 23.33° C | 32% | 1021.4 hPa | - | - | - | - |
| 1777735885 | 23.33° C | 31% | 1021.4 hPa | - | - | - | - |
| 1777735583 | 23.89° C | 31% | 1021.4 hPa | - | - | - | - |
| 1777735282 | 23.33° C | 32% | 1021.5 hPa | - | - | - | - |
| 1777734981 | 23.33° C | 31% | 1021.6 hPa | - | - | - | - |
| 1777734680 | 23.33° C | 32% | 1021.6 hPa | - | - | - | - |
| 1777734379 | 23.33° C | 31% | 1021.6 hPa | - | - | - | - |
* Rain since midnight (hover to see other rain measurements)
** Current wind speed in m/s (hover to see current wind gust speed)